Time;durP1;ratioP1;P1;durP2;ratioP2;P2;SDS_P1;SDS_P2;PMS_P1;PMS_P2;Temp;Humidity;BMP_temperature;BMP_pressure;BME280_temperature;BME280_humidity;BME280_pressure;Samples;Min_cycle;Max_cycle;Signal;HPM_P1;HPM_P2
2022/12/03 00:01:24;;;;;;;19.88;9.13;;;;;;;;;;4966799;28;20538;-68
2022/12/03 00:03:49;;;;;;;18.53;8.97;;;;;;;;;;4967715;28;20029;-67
2022/12/03 00:06:15;;;;;;;19.40;9.52;;;;;;;;;;4971287;28;20273;-68
2022/12/03 00:08:40;;;;;;;18.75;8.40;;;;;;;;;;4972769;28;20110;-68
2022/12/03 00:11:05;;;;;;;17.63;8.67;;;;;;;;;;4968903;28;20502;-67
2022/12/03 00:13:30;;;;;;;15.88;8.30;;;;;;;;;;4967514;28;20278;-67
2022/12/03 00:15:55;;;;;;;18.90;7.90;;;;;;;;;;4970537;28;20018;-67
2022/12/03 00:18:20;;;;;;;16.37;8.17;;;;;;;;;;4966365;28;20345;-70
2022/12/03 00:20:46;;;;;;;18.17;8.75;;;;;;;;;;4968511;28;20679;-68
2022/12/03 00:23:11;;;;;;;15.32;7.85;;;;;;;;;;4968365;28;20030;-68
2022/12/03 00:25:36;;;;;;;18.52;8.23;;;;;;;;;;4971135;28;20027;-67
2022/12/03 00:28:01;;;;;;;20.53;9.53;;;;;;;;;;4966909;28;20034;-67
2022/12/03 00:30:26;;;;;;;15.45;7.57;;;;;;;;;;4968915;28;20270;-67
2022/12/03 00:32:52;;;;;;;17.30;8.05;;;;;;;;;;4969563;28;20031;-68
2022/12/03 00:35:17;;;;;;;14.40;7.38;;;;;;;;;;4974471;28;20018;-67
2022/12/03 00:37:42;;;;;;;12.37;6.50;;;;;;;;;;4970936;28;20034;-70
2022/12/03 00:40:08;;;;;;;17.15;7.18;;;;;;;;;;4967688;28;20349;-68
2022/12/03 00:42:33;;;;;;;14.40;7.20;;;;;;;;;;4968048;28;20031;-68
2022/12/03 00:44:58;;;;;;;16.15;7.72;;;;;;;;;;4968516;28;20023;-68
2022/12/03 00:47:23;;;;;;;16.17;8.52;;;;;;;;;;4969399;28;20026;-68
2022/12/03 00:49:48;;;;;;;13.98;7.53;;;;;;;;;;4973117;28;20030;-68
2022/12/03 00:52:14;;;;;;;14.60;6.90;;;;;;;;;;4968750;28;20023;-68
2022/12/03 00:54:39;;;;;;;13.48;6.70;;;;;;;;;;4972589;28;20077;-68
2022/12/03 00:57:04;;;;;;;17.27;6.60;;;;;;;;;;4969123;28;20391;-68
2022/12/03 00:59:29;;;;;;;17.38;8.23;;;;;;;;;;4966954;28;20266;-68
2022/12/03 01:01:54;;;;;;;14.95;7.72;;;;;;;;;;4969805;28;20015;-68
2022/12/03 01:04:20;;;;;;;13.90;6.60;;;;;;;;;;4974861;28;20019;-68
2022/12/03 01:06:45;;;;;;;14.70;7.60;;;;;;;;;;4975974;28;20015;-68
2022/12/03 01:09:10;;;;;;;13.68;6.45;;;;;;;;;;4966640;28;20070;-68
2022/12/03 01:11:39;;;;;;;16.67;7.47;;;;;;;;;;4970985;28;20497;-68
2022/12/03 01:14:05;;;;;;;15.57;8.32;;;;;;;;;;4971131;28;20526;-68
2022/12/03 01:16:30;;;;;;;14.07;7.03;;;;;;;;;;4973231;28;20031;-68
2022/12/03 01:18:55;;;;;;;14.07;7.03;;;;;;;;;;4968952;28;20046;-68
2022/12/03 01:21:21;;;;;;;17.45;8.00;;;;;;;;;;4983534;28;20023;-68
2022/12/03 01:23:46;;;;;;;13.27;7.30;;;;;;;;;;4970963;28;20046;-68
2022/12/03 01:26:11;;;;;;;14.27;6.30;;;;;;;;;;4973033;28;20046;-68
2022/12/03 01:28:36;;;;;;;14.85;7.25;;;;;;;;;;4971242;28;20274;-68
2022/12/03 01:33:45;;;;;;;10.68;5.82;;;;;;;;;;4968626;28;20281;-68
2022/12/03 01:36:10;;;;;;;14.83;7.40;;;;;;;;;;4971595;28;20031;-68
2022/12/03 01:38:35;;;;;;;15.50;8.05;;;;;;;;;;4971956;28;20285;-67
2022/12/03 01:41:01;;;;;;;16.13;7.90;;;;;;;;;;4971839;28;20113;-68
2022/12/03 01:43:26;;;;;;;12.70;7.05;;;;;;;;;;4972163;28;20300;-68
2022/12/03 01:45:51;;;;;;;14.20;6.55;;;;;;;;;;4973468;28;20034;-68
2022/12/03 01:48:16;;;;;;;14.97;7.60;;;;;;;;;;4968539;28;20082;-68
2022/12/03 01:50:42;;;;;;;13.45;6.55;;;;;;;;;;4972838;28;20841;-68
2022/12/03 01:53:09;;;;;;;14.13;6.95;;;;;;;;;;4969687;28;20037;-68
2022/12/03 01:55:34;;;;;;;16.05;7.38;;;;;;;;;;4972074;28;20045;-68
2022/12/03 01:58:00;;;;;;;12.93;6.25;;;;;;;;;;4971891;28;20069;-68
2022/12/03 02:00:26;;;;;;;15.98;7.70;;;;;;;;;;4969636;28;20019;-67
2022/12/03 02:02:53;;;;;;;15.63;7.88;;;;;;;;;;4970649;28;20023;-67
2022/12/03 02:05:20;;;;;;;17.63;8.95;;;;;;;;;;4973035;28;20050;-68
2022/12/03 02:07:45;;;;;;;14.43;7.13;;;;;;;;;;4975330;28;20082;-67
2022/12/03 02:10:12;;;;;;;15.25;8.00;;;;;;;;;;4970556;28;20019;-68
2022/12/03 02:12:40;;;;;;;15.60;8.30;;;;;;;;;;4971668;28;20057;-68
2022/12/03 02:15:06;;;;;;;16.40;8.35;;;;;;;;;;4970693;28;20082;-67
2022/12/03 02:17:31;;;;;;;16.27;8.23;;;;;;;;;;4971373;28;20391;-68
2022/12/03 02:19:57;;;;;;;14.90;8.23;;;;;;;;;;4970823;28;20019;-68
2022/12/03 02:22:29;;;;;;;17.52;8.95;;;;;;;;;;4972630;28;20537;-68
2022/12/03 02:25:03;;;;;;;13.75;7.68;;;;;;;;;;4973322;28;20018;-68
2022/12/03 02:27:28;;;;;;;18.15;8.75;;;;;;;;;;4975029;28;20023;-68
2022/12/03 02:29:53;;;;;;;15.05;7.80;;;;;;;;;;4970667;28;20023;-68
2022/12/03 02:32:20;;;;;;;16.85;8.18;;;;;;;;;;4976271;28;20029;-68
2022/12/03 02:34:45;;;;;;;17.98;9.23;;;;;;;;;;4970542;28;20038;-68
2022/12/03 02:37:12;;;;;;;24.63;9.50;;;;;;;;;;4968743;28;20015;-68
2022/12/03 02:39:39;;;;;;;18.60;9.55;;;;;;;;;;4969827;28;20027;-67
2022/12/03 02:44:49;;;;;;;16.17;7.68;;;;;;;;;;4970604;28;20034;-68
2022/12/03 02:47:15;;;;;;;17.48;8.23;;;;;;;;;;4970459;28;20027;-68
2022/12/03 02:49:40;;;;;;;19.33;10.27;;;;;;;;;;4971635;28;20022;-67
2022/12/03 02:52:05;;;;;;;16.77;8.43;;;;;;;;;;4972679;28;20101;-68
2022/12/03 02:54:31;;;;;;;15.43;8.95;;;;;;;;;;4972058;28;20023;-67
2022/12/03 02:56:56;;;;;;;18.70;9.00;;;;;;;;;;4969624;28;20085;-68
2022/12/03 02:59:21;;;;;;;20.27;9.35;;;;;;;;;;4968545;28;20023;-68
2022/12/03 03:01:47;;;;;;;19.80;8.73;;;;;;;;;;4969686;28;20026;-67
2022/12/03 03:04:12;;;;;;;17.73;8.25;;;;;;;;;;4968321;28;20022;-68
2022/12/03 03:06:37;;;;;;;20.13;9.15;;;;;;;;;;4970594;28;20073;-67
2022/12/03 03:09:02;;;;;;;21.25;9.57;;;;;;;;;;4971518;28;20529;-68
2022/12/03 03:11:28;;;;;;;19.63;9.07;;;;;;;;;;4970033;28;20491;-68
2022/12/03 03:13:53;;;;;;;18.95;9.73;;;;;;;;;;4974897;28;20082;-68
2022/12/03 03:16:18;;;;;;;21.98;9.40;;;;;;;;;;4970217;28;20069;-67
2022/12/03 03:18:44;;;;;;;19.38;9.75;;;;;;;;;;4970573;28;20031;-68
2022/12/03 03:21:09;;;;;;;20.33;9.98;;;;;;;;;;4971475;28;20499;-68
2022/12/03 03:23:34;;;;;;;20.85;9.77;;;;;;;;;;4976177;28;20022;-68
2022/12/03 03:26:10;;;;;;;21.42;9.63;;;;;;;;;;4971564;28;20051;-68
2022/12/03 03:28:40;;;;;;;20.80;10.27;;;;;;;;;;4971741;28;20023;-68
2022/12/03 03:31:06;;;;;;;25.90;10.57;;;;;;;;;;4968760;28;20070;-68
2022/12/03 03:33:32;;;;;;;21.98;10.73;;;;;;;;;;4971512;28;20126;-68
2022/12/03 03:35:59;;;;;;;22.48;10.20;;;;;;;;;;4968644;28;20110;-68
2022/12/03 03:38:24;;;;;;;23.20;10.18;;;;;;;;;;4969895;28;20050;-68
2022/12/03 03:40:50;;;;;;;20.67;10.07;;;;;;;;;;4968318;28;20435;-68
2022/12/03 03:43:16;;;;;;;22.15;10.00;;;;;;;;;;4973886;28;20379;-68
2022/12/03 03:45:42;;;;;;;24.65;11.23;;;;;;;;;;4967919;28;20026;-68
2022/12/03 03:48:07;;;;;;;21.80;10.40;;;;;;;;;;4971831;28;20027;-68
2022/12/03 03:50:33;;;;;;;26.42;10.25;;;;;;;;;;4971777;28;20022;-68
2022/12/03 03:52:59;;;;;;;21.17;9.65;;;;;;;;;;4968516;28;20023;-68
2022/12/03 03:55:25;;;;;;;24.10;11.27;;;;;;;;;;4968490;28;20502;-67
2022/12/03 03:57:50;;;;;;;23.35;11.13;;;;;;;;;;5000372;28;20035;-68
2022/12/03 04:00:15;;;;;;;22.38;10.95;;;;;;;;;;4968435;28;20464;-67
2022/12/03 04:02:41;;;;;;;23.85;12.00;;;;;;;;;;4969792;28;20031;-67
2022/12/03 04:05:07;;;;;;;21.85;10.20;;;;;;;;;;4968569;28;20030;-68
2022/12/03 04:07:32;;;;;;;23.23;11.18;;;;;;;;;;4968208;28;20515;-68
2022/12/03 04:09:57;;;;;;;23.73;10.77;;;;;;;;;;4958824;28;20049;-67
2022/12/03 04:15:06;;;;;;;24.73;10.98;;;;;;;;;;4966984;28;20756;-68
2022/12/03 04:17:32;;;;;;;22.83;10.18;;;;;;;;;;4973386;28;20058;-68
2022/12/03 04:19:57;;;;;;;22.27;10.93;;;;;;;;;;4966785;28;20037;-68
2022/12/03 04:22:40;;;;;;;24.33;11.23;;;;;;;;;;4971190;28;20467;-68
2022/12/03 04:30:34;;;;;;;27.15;12.20;;;;;;;;;;4969902;28;20030;-68
2022/12/03 04:35:43;;;;;;;25.25;11.32;;;;;;;;;;4961381;28;20077;-70
2022/12/03 04:38:12;;;;;;;25.05;10.70;;;;;;;;;;4975085;28;20035;-68
2022/12/03 04:43:21;;;;;;;24.23;10.80;;;;;;;;;;4963452;28;20033;-70
2022/12/03 04:45:47;;;;;;;24.70;11.57;;;;;;;;;;4964720;28;20035;-70
2022/12/03 04:48:12;;;;;;;25.83;10.57;;;;;;;;;;4959174;28;20757;-69
2022/12/03 04:50:37;;;;;;;24.77;11.33;;;;;;;;;;4965353;28;20928;-70
2022/12/03 04:53:02;;;;;;;30.50;12.77;;;;;;;;;;4957012;28;20273;-69
2022/12/03 04:55:28;;;;;;;25.63;12.02;;;;;;;;;;4967009;28;20804;-70
2022/12/03 04:57:53;;;;;;;24.75;11.10;;;;;;;;;;4959395;28;20518;-70
2022/12/03 05:00:18;;;;;;;25.00;11.63;;;;;;;;;;4965172;28;20031;-70
2022/12/03 05:02:43;;;;;;;27.48;11.90;;;;;;;;;;4968486;28;20372;-70
2022/12/03 05:05:09;;;;;;;23.73;11.65;;;;;;;;;;4959018;28;20019;-70
2022/12/03 05:07:35;;;;;;;28.58;11.80;;;;;;;;;;4970502;28;20031;-69
2022/12/03 05:10:00;;;;;;;28.50;11.60;;;;;;;;;;4964320;28;20035;-70
2022/12/03 05:12:25;;;;;;;23.37;10.80;;;;;;;;;;4961609;28;20081;-70
2022/12/03 05:14:50;;;;;;;27.70;12.37;;;;;;;;;;4959686;28;20294;-70
2022/12/03 05:17:15;;;;;;;25.07;12.03;;;;;;;;;;4960366;28;20313;-70
2022/12/03 05:22:24;;;;;;;26.65;11.55;;;;;;;;;;4955654;28;20029;-70
2022/12/03 05:24:49;;;;;;;27.17;11.07;;;;;;;;;;4960256;28;20031;-69
2022/12/03 05:27:14;;;;;;;27.33;11.27;;;;;;;;;;4956155;28;20377;-70
2022/12/03 05:29:39;;;;;;;27.30;12.35;;;;;;;;;;4958370;28;20287;-70
2022/12/03 05:32:05;;;;;;;26.47;11.30;;;;;;;;;;4956988;28;20031;-71
2022/12/03 05:34:30;;;;;;;25.05;11.60;;;;;;;;;;4959873;28;20278;-70
2022/12/03 05:36:55;;;;;;;27.15;10.60;;;;;;;;;;4960816;28;20031;-70
2022/12/03 05:39:20;;;;;;;29.27;11.40;;;;;;;;;;4959302;28;20015;-70
2022/12/03 05:44:29;;;;;;;25.08;11.00;;;;;;;;;;4962684;28;20388;-70
2022/12/03 05:46:54;;;;;;;25.55;10.57;;;;;;;;;;4961681;28;20022;-70
2022/12/03 05:49:20;;;;;;;26.77;10.83;;;;;;;;;;4963838;28;20162;-70
2022/12/03 05:51:45;;;;;;;23.23;11.47;;;;;;;;;;4963676;28;20278;-70
2022/12/03 05:54:10;;;;;;;29.23;12.32;;;;;;;;;;4959177;28;20316;-70
2022/12/03 05:56:35;;;;;;;26.10;11.00;;;;;;;;;;4964524;28;20383;-70
2022/12/03 05:59:00;;;;;;;26.17;10.93;;;;;;;;;;4958357;28;20407;-69
2022/12/03 06:01:25;;;;;;;26.87;10.87;;;;;;;;;;4962538;28;20271;-70
2022/12/03 06:03:51;;;;;;;23.63;10.50;;;;;;;;;;4967535;28;20643;-70
2022/12/03 06:06:16;;;;;;;23.83;9.65;;;;;;;;;;4967550;28;20285;-70
2022/12/03 06:08:41;;;;;;;26.43;11.10;;;;;;;;;;4967393;28;20094;-70
2022/12/03 06:11:06;;;;;;;31.10;12.73;;;;;;;;;;4966794;28;20290;-70
2022/12/03 06:13:31;;;;;;;26.10;10.83;;;;;;;;;;4959943;28;20031;-70
2022/12/03 06:15:56;;;;;;;26.87;11.47;;;;;;;;;;4959323;28;20278;-70
2022/12/03 06:18:22;;;;;;;28.75;11.13;;;;;;;;;;4967558;28;20369;-70
2022/12/03 06:20:47;;;;;;;27.43;11.37;;;;;;;;;;4962280;28;20282;-70
2022/12/03 06:23:12;;;;;;;28.40;12.20;;;;;;;;;;4963453;28;20278;-70
2022/12/03 06:25:37;;;;;;;29.03;12.00;;;;;;;;;;4957370;28;20026;-70
2022/12/03 06:28:02;;;;;;;30.42;12.43;;;;;;;;;;4960486;28;20274;-69
2022/12/03 06:30:28;;;;;;;27.55;11.63;;;;;;;;;;4958019;28;20391;-70
2022/12/03 06:32:53;;;;;;;29.90;12.50;;;;;;;;;;4964807;28;20035;-70
2022/12/03 06:35:18;;;;;;;31.05;11.88;;;;;;;;;;4963268;28;20365;-70
2022/12/03 06:37:43;;;;;;;28.33;10.88;;;;;;;;;;4966893;28;20442;-70
2022/12/03 06:40:09;;;;;;;24.43;10.07;;;;;;;;;;4959325;28;20027;-71
2022/12/03 06:42:34;;;;;;;31.92;12.02;;;;;;;;;;4961102;28;20283;-69
2022/12/03 06:44:59;;;;;;;33.47;12.50;;;;;;;;;;4966644;28;20027;-70
2022/12/03 06:47:24;;;;;;;27.45;11.45;;;;;;;;;;4959890;28;20275;-68
2022/12/03 06:49:49;;;;;;;33.28;13.40;;;;;;;;;;4955615;28;20027;-70
2022/12/03 06:52:14;;;;;;;29.20;11.90;;;;;;;;;;4965780;28;20031;-70
2022/12/03 06:54:40;;;;;;;32.13;13.98;;;;;;;;;;4967889;28;20288;-70
2022/12/03 06:57:05;;;;;;;31.60;12.53;;;;;;;;;;4962503;28;20457;-70
2022/12/03 06:59:32;;;;;;;30.88;12.90;;;;;;;;;;4962031;28;20280;-70
2022/12/03 07:01:58;;;;;;;33.00;12.13;;;;;;;;;;4960214;28;20027;-71
2022/12/03 07:04:23;;;;;;;27.77;11.30;;;;;;;;;;4966285;28;20035;-69
2022/12/03 07:06:48;;;;;;;30.77;11.83;;;;;;;;;;4959660;28;20057;-68
2022/12/03 07:09:15;;;;;;;29.00;11.85;;;;;;;;;;4960222;28;20269;-70
2022/12/03 07:11:41;;;;;;;22.50;9.10;;;;;;;;;;4964819;28;20018;-68
2022/12/03 07:14:06;;;;;;;27.67;10.50;;;;;;;;;;4957860;28;20380;-70
2022/12/03 07:16:32;;;;;;;25.73;9.27;;;;;;;;;;4958112;28;20529;-70
2022/12/03 07:18:57;;;;;;;23.27;9.73;;;;;;;;;;4962727;28;20043;-70
2022/12/03 07:21:22;;;;;;;32.60;12.10;;;;;;;;;;4961324;28;20018;-70
2022/12/03 07:23:48;;;;;;;31.93;13.20;;;;;;;;;;4965570;28;20816;-68
2022/12/03 07:26:13;;;;;;;28.83;11.73;;;;;;;;;;4966344;28;20267;-71
2022/12/03 07:28:38;;;;;;;30.52;11.38;;;;;;;;;;4962844;28;20035;-70
2022/12/03 07:31:04;;;;;;;31.38;12.70;;;;;;;;;;4962661;28;20054;-70
2022/12/03 07:33:29;;;;;;;29.77;11.30;;;;;;;;;;4965772;28;20033;-70
2022/12/03 07:35:54;;;;;;;29.92;11.23;;;;;;;;;;4962710;28;20041;-70
2022/12/03 07:38:19;;;;;;;24.53;9.77;;;;;;;;;;4959818;28;20428;-70
2022/12/03 07:40:44;;;;;;;29.80;10.27;;;;;;;;;;4964564;28;20417;-70
2022/12/03 07:43:10;;;;;;;24.10;9.00;;;;;;;;;;4959428;28;20746;-70
2022/12/03 07:45:35;;;;;;;24.05;10.10;;;;;;;;;;4956743;28;20360;-69
2022/12/03 07:48:01;;;;;;;27.92;9.43;;;;;;;;;;4964138;28;20031;-70
2022/12/03 07:50:27;;;;;;;23.47;10.20;;;;;;;;;;4960432;28;20027;-70
2022/12/03 07:52:52;;;;;;;24.00;9.80;;;;;;;;;;4953247;28;21445;-68
2022/12/03 07:55:17;;;;;;;23.73;9.60;;;;;;;;;;4965108;28;20381;-70
2022/12/03 07:57:42;;;;;;;22.33;10.23;;;;;;;;;;4954529;28;20030;-69
2022/12/03 08:00:09;;;;;;;28.35;11.02;;;;;;;;;;4956281;28;20714;-70
2022/12/03 08:02:34;;;;;;;24.67;10.10;;;;;;;;;;4953087;28;20446;-71
2022/12/03 08:04:59;;;;;;;27.77;10.93;;;;;;;;;;4966120;28;20480;-69
2022/12/03 08:07:24;;;;;;;24.00;9.48;;;;;;;;;;4963702;28;20370;-70
2022/12/03 08:09:50;;;;;;;25.35;10.10;;;;;;;;;;4964759;28;20199;-69
2022/12/03 08:12:16;;;;;;;24.55;10.18;;;;;;;;;;4955204;28;20376;-70
2022/12/03 08:14:42;;;;;;;25.98;10.25;;;;;;;;;;4960382;28;20158;-70
2022/12/03 08:17:11;;;;;;;24.67;8.95;;;;;;;;;;4964349;28;20098;-69
2022/12/03 08:19:36;;;;;;;26.75;10.15;;;;;;;;;;4964086;28;20023;-70
2022/12/03 08:22:08;;;;;;;27.13;10.50;;;;;;;;;;4967207;28;20468;-70
2022/12/03 08:24:33;;;;;;;25.27;9.63;;;;;;;;;;4966098;28;20026;-70
2022/12/03 08:26:59;;;;;;;25.83;9.35;;;;;;;;;;4962312;28;20126;-70
2022/12/03 08:29:24;;;;;;;27.17;12.00;;;;;;;;;;4965475;28;20022;-70
2022/12/03 08:31:51;;;;;;;26.52;10.48;;;;;;;;;;4958815;28;20027;-70
2022/12/03 08:34:25;;;;;;;22.55;9.05;;;;;;;;;;4970110;28;20033;-69
2022/12/03 08:36:51;;;;;;;24.98;9.50;;;;;;;;;;4961076;28;20014;-69
2022/12/03 08:39:27;;;;;;;24.00;9.80;;;;;;;;;;4952091;28;20090;-68
2022/12/03 08:44:40;;;;;;;26.33;10.45;;;;;;;;;;4960247;28;20061;-70
2022/12/03 08:47:08;;;;;;;29.35;10.95;;;;;;;;;;4959345;28;20030;-69
2022/12/03 08:49:33;;;;;;;24.80;9.75;;;;;;;;;;4959290;28;20145;-69
2022/12/03 08:51:59;;;;;;;28.73;9.60;;;;;;;;;;4972999;28;20467;-70
2022/12/03 08:54:24;;;;;;;21.75;9.30;;;;;;;;;;4965283;28;20118;-71
2022/12/03 08:56:50;;;;;;;22.35;9.18;;;;;;;;;;4956988;28;20042;-70
2022/12/03 08:59:24;;;;;;;19.60;8.48;;;;;;;;;;4966726;28;20080;-70
2022/12/03 09:01:50;;;;;;;20.73;8.10;;;;;;;;;;4962292;28;20023;-70
2022/12/03 09:04:21;;;;;;;21.20;9.05;;;;;;;;;;4965036;28;20023;-70
2022/12/03 09:06:46;;;;;;;24.63;10.98;;;;;;;;;;4953857;28;20100;-70
2022/12/03 09:09:12;;;;;;;23.23;8.15;;;;;;;;;;4953990;28;20122;-70
2022/12/03 09:11:37;;;;;;;27.77;11.02;;;;;;;;;;4962065;28;20546;-70
2022/12/03 09:14:02;;;;;;;21.15;9.00;;;;;;;;;;4971419;28;20054;-70
2022/12/03 09:16:28;;;;;;;21.08;8.18;;;;;;;;;;4959900;28;20082;-69
2022/12/03 09:18:53;;;;;;;25.23;10.70;;;;;;;;;;4975694;28;20113;-70
2022/12/03 09:21:18;;;;;;;21.87;9.40;;;;;;;;;;4975088;28;20292;-70
2022/12/03 09:23:43;;;;;;;21.23;8.57;;;;;;;;;;4961545;28;20353;-69
2022/12/03 09:26:08;;;;;;;23.17;9.40;;;;;;;;;;4957721;28;20282;-70
2022/12/03 09:28:33;;;;;;;21.33;8.90;;;;;;;;;;4951123;28;20670;-70
2022/12/03 09:30:58;;;;;;;19.27;9.07;;;;;;;;;;4958500;28;20279;-69
2022/12/03 09:33:24;;;;;;;19.63;7.63;;;;;;;;;;4972071;28;20920;-69
2022/12/03 09:35:49;;;;;;;22.55;9.05;;;;;;;;;;4963520;28;20285;-70
2022/12/03 09:38:14;;;;;;;20.08;9.75;;;;;;;;;;4957221;28;20130;-70
2022/12/03 09:40:39;;;;;;;24.90;8.57;;;;;;;;;;4958872;28;20504;-70
2022/12/03 09:43:05;;;;;;;21.27;8.13;;;;;;;;;;4963105;28;20019;-71
2022/12/03 09:45:30;;;;;;;22.25;8.63;;;;;;;;;;4960034;28;20459;-71
2022/12/03 09:47:55;;;;;;;23.23;9.25;;;;;;;;;;4963506;28;20113;-70
2022/12/03 09:50:22;;;;;;;21.77;8.65;;;;;;;;;;4965931;28;20465;-70
2022/12/03 09:52:48;;;;;;;21.23;8.85;;;;;;;;;;4956530;28;20031;-71
2022/12/03 09:55:15;;;;;;;22.70;9.02;;;;;;;;;;4967399;28;20027;-71
2022/12/03 09:57:40;;;;;;;22.65;9.13;;;;;;;;;;4962789;28;20486;-71
2022/12/03 10:00:13;;;;;;;13.68;5.35;;;;;;;;;;4964112;28;20058;-71
2022/12/03 10:02:40;;;;;;;18.35;7.70;;;;;;;;;;4961982;28;20165;-71
2022/12/03 10:05:05;;;;;;;18.45;7.50;;;;;;;;;;4959192;28;20055;-69
2022/12/03 10:07:30;;;;;;;25.65;10.18;;;;;;;;;;4960355;28;20078;-70
2022/12/03 10:09:55;;;;;;;19.88;9.35;;;;;;;;;;4968966;28;20033;-71
2022/12/03 10:12:22;;;;;;;19.73;8.57;;;;;;;;;;4963035;28;20024;-71
2022/12/03 10:14:47;;;;;;;21.27;9.10;;;;;;;;;;4959836;28;20297;-71
2022/12/03 10:17:12;;;;;;;22.92;9.20;;;;;;;;;;4963719;28;20548;-69
2022/12/03 10:19:38;;;;;;;22.90;8.63;;;;;;;;;;4956190;28;20106;-71
2022/12/03 10:22:03;;;;;;;16.45;7.95;;;;;;;;;;4962563;28;20293;-71
2022/12/03 10:24:32;;;;;;;21.63;9.10;;;;;;;;;;4963157;28;20483;-71
2022/12/03 10:26:59;;;;;;;21.58;9.63;;;;;;;;;;4958139;28;20106;-70
2022/12/03 10:29:25;;;;;;;23.55;8.20;;;;;;;;;;4958987;28;20106;-71
2022/12/03 10:32:04;;;;;;;22.35;9.25;;;;;;;;;;4959310;28;20496;-71
2022/12/03 10:34:31;;;;;;;24.45;8.60;;;;;;;;;;5006478;23;20089;-68
2022/12/03 10:37:20;;;;;;;17.60;7.72;;;;;;;;;;4982404;28;20030;-69
2022/12/03 10:39:52;;;;;;;22.58;9.85;;;;;;;;;;4982505;28;20046;-69
2022/12/03 10:42:17;;;;;;;20.77;8.32;;;;;;;;;;4989082;28;20018;-69
2022/12/03 10:44:43;;;;;;;19.73;9.20;;;;;;;;;;4995331;28;20025;-69
2022/12/03 10:47:10;;;;;;;20.70;9.50;;;;;;;;;;4994624;28;20050;-68
2022/12/03 10:49:35;;;;;;;25.45;10.07;;;;;;;;;;4992587;28;20034;-68
2022/12/03 10:52:01;;;;;;;24.20;10.27;;;;;;;;;;4995094;28;20023;-68
2022/12/03 10:54:27;;;;;;;23.92;9.90;;;;;;;;;;4993332;28;20033;-69
2022/12/03 10:56:52;;;;;;;21.35;8.25;;;;;;;;;;4994937;28;20014;-68
2022/12/03 10:59:19;;;;;;;21.25;9.00;;;;;;;;;;4994247;28;20022;-68
2022/12/03 11:01:45;;;;;;;22.98;9.73;;;;;;;;;;4992822;28;20368;-68
2022/12/03 11:04:17;;;;;;;27.67;11.13;;;;;;;;;;4994102;28;20033;-68
2022/12/03 11:06:42;;;;;;;22.42;8.88;;;;;;;;;;4994670;28;20019;-68
2022/12/03 11:09:12;;;;;;;19.50;8.10;;;;;;;;;;4993788;28;20014;-68
2022/12/03 11:11:38;;;;;;;22.52;8.77;;;;;;;;;;4993323;28;20022;-68
2022/12/03 11:14:03;;;;;;;23.13;10.27;;;;;;;;;;4993939;28;20375;-68
2022/12/03 11:16:37;;;;;;;19.52;9.63;;;;;;;;;;4992485;28;20498;-68
2022/12/03 11:19:03;;;;;;;22.83;9.45;;;;;;;;;;4992545;28;20018;-68
2022/12/03 11:21:29;;;;;;;27.75;10.35;;;;;;;;;;4993581;28;20463;-68
2022/12/03 11:23:57;;;;;;;23.48;9.90;;;;;;;;;;4993673;28;20046;-68
2022/12/03 11:26:28;;;;;;;23.10;9.80;;;;;;;;;;4993300;28;20014;-68
2022/12/03 11:28:56;;;;;;;23.45;9.90;;;;;;;;;;4992059;28;20109;-67
2022/12/03 11:31:45;;;;;;;22.17;9.70;;;;;;;;;;4986356;28;20596;-68
2022/12/03 11:34:19;;;;;;;21.60;9.98;;;;;;;;;;4998453;28;20029;-68
2022/12/03 11:37:03;;;;;;;21.65;10.15;;;;;;;;;;4986529;28;20065;-67
2022/12/03 11:39:43;;;;;;;24.98;10.48;;;;;;;;;;4984550;28;20041;-67
2022/12/03 11:42:27;;;;;;;24.50;10.45;;;;;;;;;;4992025;28;20018;-67
2022/12/03 11:45:05;;;;;;;27.15;10.98;;;;;;;;;;4991620;28;20030;-67
2022/12/03 11:47:30;;;;;;;24.02;10.52;;;;;;;;;;4986557;28;20317;-68
2022/12/03 11:49:56;;;;;;;25.10;10.40;;;;;;;;;;4990471;28;20021;-67
2022/12/03 11:52:23;;;;;;;24.33;8.65;;;;;;;;;;4992383;28;20281;-68
2022/12/03 11:54:50;;;;;;;24.55;11.25;;;;;;;;;;4992652;28;20050;-67
2022/12/03 11:57:24;;;;;;;23.92;10.23;;;;;;;;;;4985438;28;20011;-67
2022/12/03 11:59:56;;;;;;;24.63;11.68;;;;;;;;;;4992071;28;20049;-68
2022/12/03 12:02:23;;;;;;;23.45;10.32;;;;;;;;;;4991537;28;20061;-67
2022/12/03 12:04:48;;;;;;;23.42;9.63;;;;;;;;;;4984514;28;20110;-67
2022/12/03 12:07:31;;;;;;;24.67;10.40;;;;;;;;;;4992127;28;20085;-67
2022/12/03 12:09:57;;;;;;;24.98;9.68;;;;;;;;;;4991830;28;20250;-67
2022/12/03 12:12:25;;;;;;;25.93;11.77;;;;;;;;;;4991480;28;20442;-68
2022/12/03 12:14:50;;;;;;;28.25;11.13;;;;;;;;;;4977930;28;20270;-68
2022/12/03 12:17:48;;;;;;;23.63;11.07;;;;;;;;;;4986756;28;20019;-68
2022/12/03 12:20:19;;;;;;;27.75;10.90;;;;;;;;;;4961818;28;20889;-67
2022/12/03 12:22:44;;;;;;;24.70;10.75;;;;;;;;;;4988072;28;20093;-68
2022/12/03 12:25:28;;;;;;;25.00;11.25;;;;;;;;;;4991357;28;20140;-68
2022/12/03 12:27:54;;;;;;;23.73;10.95;;;;;;;;;;4986842;28;20031;-67
2022/12/03 12:30:20;;;;;;;23.17;11.77;;;;;;;;;;4988212;28;20014;-68
2022/12/03 12:32:47;;;;;;;25.65;11.93;;;;;;;;;;4987416;28;20105;-67
2022/12/03 12:35:13;;;;;;;27.20;11.90;;;;;;;;;;4987643;28;20030;-68
2022/12/03 12:37:42;;;;;;;24.95;10.93;;;;;;;;;;4981576;28;20473;-68
2022/12/03 12:40:12;;;;;;;27.98;11.88;;;;;;;;;;4981304;28;20022;-68
2022/12/03 12:42:41;;;;;;;29.77;13.43;;;;;;;;;;4989182;28;20252;-67
2022/12/03 12:45:06;;;;;;;29.20;12.18;;;;;;;;;;4988169;28;20026;-70
2022/12/03 12:47:33;;;;;;;30.98;11.95;;;;;;;;;;4988985;28;20376;-72
2022/12/03 12:49:58;;;;;;;32.13;12.65;;;;;;;;;;4980614;28;20345;-68
2022/12/03 12:52:24;;;;;;;31.75;13.20;;;;;;;;;;4979380;28;20153;-67
2022/12/03 12:54:49;;;;;;;30.30;14.07;;;;;;;;;;4988381;28;20398;-67
2022/12/03 12:57:17;;;;;;;29.47;12.73;;;;;;;;;;4990490;28;20501;-67
2022/12/03 12:59:42;;;;;;;28.45;12.15;;;;;;;;;;4990664;28;20804;-68
2022/12/03 13:02:25;;;;;;;28.00;11.90;;;;;;;;;;4990472;28;20026;-67
2022/12/03 13:04:50;;;;;;;29.45;11.80;;;;;;;;;;4991823;28;20402;-68
2022/12/03 13:07:16;;;;;;;28.98;11.80;;;;;;;;;;4989290;28;20038;-68
2022/12/03 13:09:41;;;;;;;28.33;11.80;;;;;;;;;;4988724;28;20041;-68
2022/12/03 13:12:16;;;;;;;28.35;12.93;;;;;;;;;;4994689;28;20021;-68
2022/12/03 13:14:42;;;;;;;28.00;11.63;;;;;;;;;;4995085;28;20026;-68
2022/12/03 13:17:14;;;;;;;30.20;13.23;;;;;;;;;;4995636;28;20022;-68
2022/12/03 13:19:40;;;;;;;31.30;13.35;;;;;;;;;;4994584;28;20029;-67
2022/12/03 13:22:13;;;;;;;33.30;13.40;;;;;;;;;;4993721;28;20019;-68
2022/12/03 13:24:39;;;;;;;26.23;12.95;;;;;;;;;;4994619;28;20018;-68
2022/12/03 13:27:19;;;;;;;33.80;14.52;;;;;;;;;;4993345;28;20090;-68
2022/12/03 13:29:44;;;;;;;;;;;;;;;;;;4993490;28;20022;-68
2022/12/03 13:32:10;;;;;;;29.13;12.90;;;;;;;;;;4994367;28;20377;-68
2022/12/03 13:34:36;;;;;;;31.83;13.10;;;;;;;;;;4999093;28;20470;-68
2022/12/03 13:37:01;;;;;;;28.90;13.85;;;;;;;;;;4986190;28;20092;-68
2022/12/03 13:39:31;;;;;;;27.98;13.27;;;;;;;;;;4996036;28;20049;-70
2022/12/03 13:44:46;;;;;;;26.52;11.93;;;;;;;;;;4985419;28;20154;-70
2022/12/03 13:47:19;;;;;;;29.48;13.00;;;;;;;;;;4994308;28;20022;-69
2022/12/03 13:49:48;;;;;;;31.48;13.73;;;;;;;;;;4992191;28;20023;-70
2022/12/03 13:52:15;;;;;;;27.35;10.88;;;;;;;;;;4988404;28;20464;-67
2022/12/03 13:54:40;;;;;;;27.48;12.35;;;;;;;;;;4992794;28;20037;-67
2022/12/03 13:57:05;;;;;;;32.05;14.10;;;;;;;;;;4987409;28;20026;-68
2022/12/03 13:59:31;;;;;;;29.38;13.35;;;;;;;;;;4988063;28;20062;-68
2022/12/03 14:01:56;;;;;;;31.65;12.75;;;;;;;;;;4982444;28;20022;-69
2022/12/03 14:04:21;;;;;;;30.23;13.57;;;;;;;;;;4988948;28;20101;-68
2022/12/03 14:06:46;;;;;;;28.42;13.13;;;;;;;;;;4992261;28;20018;-67
2022/12/03 14:09:11;;;;;;;34.80;14.90;;;;;;;;;;4990596;28;21386;-67
2022/12/03 14:14:21;;;;;;;34.47;13.68;;;;;;;;;;4983647;28;20046;-68
2022/12/03 14:16:46;;;;;;;31.23;14.53;;;;;;;;;;4991421;28;20023;-67
2022/12/03 14:19:12;;;;;;;36.63;14.63;;;;;;;;;;5017234;28;20351;-68
2022/12/03 14:21:37;;;;;;;38.05;15.15;;;;;;;;;;4985373;28;20097;-68
2022/12/03 14:24:02;;;;;;;30.50;13.65;;;;;;;;;;4990975;28;20158;-67
2022/12/03 14:26:27;;;;;;;33.78;14.98;;;;;;;;;;4983581;28;20046;-68
2022/12/03 14:28:52;;;;;;;34.07;15.53;;;;;;;;;;4990061;28;20030;-68
2022/12/03 14:31:17;;;;;;;39.00;16.73;;;;;;;;;;4987562;28;20270;-69
2022/12/03 14:33:43;;;;;;;33.00;14.63;;;;;;;;;;4985400;28;20034;-68
2022/12/03 14:36:08;;;;;;;38.77;16.37;;;;;;;;;;4992985;28;20265;-66
2022/12/03 14:38:33;;;;;;;38.40;15.18;;;;;;;;;;4984564;28;20293;-67
2022/12/03 14:40:58;;;;;;;43.50;16.33;;;;;;;;;;4987483;28;20087;-67
2022/12/03 14:43:23;;;;;;;36.17;14.48;;;;;;;;;;4988108;28;20068;-66
2022/12/03 14:45:49;;;;;;;33.28;14.88;;;;;;;;;;4986359;28;20018;-71
2022/12/03 14:48:14;;;;;;;36.25;15.70;;;;;;;;;;4992197;28;20018;-66
2022/12/03 14:50:39;;;;;;;35.72;14.75;;;;;;;;;;5000907;28;20104;-69
2022/12/03 14:53:04;;;;;;;39.83;16.90;;;;;;;;;;4990639;28;20077;-67